Map

Track Data

SID SEASON NUMBER BASIN SUBBASIN NAME ISO_TIME NATURE LAT LON WMO_WIND WMO_PRES WMO_AGENCY TRACK_TYPE DIST2LAND LANDFALL IFLAG USA_AGENCY USA_ATCF_ID USA_LAT USA_LON USA_RECORD USA_STATUS USA_WIND USA_PRES USA_SSHS USA_R34_NE USA_R34_SE USA_R34_SW USA_R34_NW USA_R50_NE USA_R50_SE USA_R50_SW USA_R50_NW USA_R64_NE USA_R64_SE USA_R64_SW USA_R64_NW USA_POCI USA_ROCI USA_RMW USA_EYE TOKYO_LAT TOKYO_LON TOKYO_GRADE TOKYO_WIND TOKYO_PRES TOKYO_R50_DIR TOKYO_R50_LONG TOKYO_R50_SHORT TOKYO_R30_DIR TOKYO_R30_LONG TOKYO_R30_SHORT TOKYO_LAND CMA_LAT CMA_LON CMA_CAT CMA_WIND CMA_PRES HKO_LAT HKO_LON HKO_CAT HKO_WIND HKO_PRES NEWDELHI_LAT NEWDELHI_LON NEWDELHI_GRADE NEWDELHI_WIND NEWDELHI_PRES NEWDELHI_CI NEWDELHI_DP NEWDELHI_POCI REUNION_LAT REUNION_LON REUNION_TYPE REUNION_WIND REUNION_PRES REUNION_TNUM REUNION_CI REUNION_RMW REUNION_R34_NE REUNION_R34_SE REUNION_R34_SW REUNION_R34_NW REUNION_R50_NE REUNION_R50_SE REUNION_R50_SW REUNION_R50_NW REUNION_R64_NE REUNION_R64_SE REUNION_R64_SW REUNION_R64_NW BOM_LAT BOM_LON BOM_TYPE BOM_WIND BOM_PRES BOM_TNUM BOM_CI BOM_RMW BOM_R34_NE BOM_R34_SE BOM_R34_SW BOM_R34_NW BOM_R50_NE BOM_R50_SE BOM_R50_SW BOM_R50_NW BOM_R64_NE BOM_R64_SE BOM_R64_SW BOM_R64_NW BOM_ROCI BOM_POCI BOM_EYE BOM_POS_METHOD BOM_PRES_METHOD NADI_LAT NADI_LON NADI_CAT NADI_WIND NADI_PRES WELLINGTON_LAT WELLINGTON_LON WELLINGTON_WIND WELLINGTON_PRES DS824_LAT DS824_LON DS824_STAGE DS824_WIND DS824_PRES TD9636_LAT TD9636_LON TD9636_STAGE TD9636_WIND TD9636_PRES TD9635_LAT TD9635_LON TD9635_WIND TD9635_PRES TD9635_ROCI NEUMANN_LAT NEUMANN_LON NEUMANN_CLASS NEUMANN_WIND NEUMANN_PRES MLC_LAT MLC_LON MLC_CLASS MLC_WIND MLC_PRES USA_GUST BOM_GUST BOM_GUST_PER REUNION_GUST REUNION_GUST_PER USA_SEAHGT USA_SEARAD_NE USA_SEARAD_SE USA_SEARAD_SW USA_SEARAD_NW STORM_SPEED STORM_DIR
1942348N06130 1942 71 WP MM NOT_NAMED 1942-12-13 12:00:00 NR 6.40000 130.000 main 389 383 __________O___ -1 6.40000 130.000 7 9 14
1942348N06130 1942 71 WP MM NOT_NAMED 1942-12-13 15:00:00 NR 6.81409 130.099 main 390 387 __________P___ -1 6.81409 130.099 7 9 13
1942348N06130 1942 71 WP MM NOT_NAMED 1942-12-13 18:00:00 NR 7.25252 130.198 main 397 397 __________P___ -1 7.25252 130.198 7 10 12
1942348N06130 1942 71 WP MM NOT_NAMED 1942-12-13 21:00:00 NR 7.73968 130.298 main 408 408 __________P___ -1 7.73968 130.298 7 11 11
1942348N06130 1942 71 WP MM NOT_NAMED 1942-12-14 00:00:00 NR 8.30000 130.400 main 424 424 __________O___ -1 8.30000 130.400 7 12 10
1942348N06130 1942 71 WP MM NOT_NAMED 1942-12-14 03:00:00 NR 8.94916 130.502 main 450 450 __________P___ -1 8.94916 130.502 7 14 8
1942348N06130 1942 71 WP MM NOT_NAMED 1942-12-14 06:00:00 NR 9.66769 130.595 main 482 482 __________P___ -1 9.66769 130.595 7 15 6
1942348N06130 1942 71 WP MM NOT_NAMED 1942-12-14 09:00:00 NR 10.4274 130.665 main 511 511 __________P___ -1 10.4274 130.665 7 15 4
1942348N06130 1942 71 WP MM NOT_NAMED 1942-12-14 12:00:00 NR 11.2000 130.700 main 535 535 __________O___ -1 11.2000 130.700 7 16 2
1942348N06130 1942 71 WP MM NOT_NAMED 1942-12-14 15:00:00 NR 12.0480 130.731 main 545 545 __________P___ -1 12.0480 130.731 7 17 0
1942348N06130 1942 71 WP MM NOT_NAMED 1942-12-14 18:00:00 NR 12.8870 130.720 main 570 570 __________P___ -1 12.8870 130.720 7 16 357
1942348N06130 1942 71 WP MM NOT_NAMED 1942-12-14 21:00:00 NR 13.6324 130.650 main 574 574 __________P___ -1 13.6324 130.650 7 13 351
1942348N06130 1942 71 WP MM NOT_NAMED 1942-12-15 00:00:00 NR 14.2000 130.500 main 586 575 __________O___ -1 14.2000 130.500 7 9 334
1942348N06130 1942 71 WP MM NOT_NAMED 1942-12-15 03:00:00 NR 14.4627 130.237 main 570 541 __________P___ -1 14.4627 130.237 7 7 301
1942348N06130 1942 71 WP MM NOT_NAMED 1942-12-15 06:00:00 NR 14.5504 129.902 main 546 518 __________P___ -1 14.5504 129.902 7 7 278
1942348N06130 1942 71 WP MM NOT_NAMED 1942-12-15 09:00:00 NR 14.5628 129.540 main 509 482 __________P___ -1 14.5628 129.540 7 7 274
1942348N06130 1942 71 WP MM NOT_NAMED 1942-12-15 12:00:00 NR 14.6000 129.200 main 482 469 __________O___ -1 14.6000 129.200 7 7 291
1942348N06130 1942 71 WP MM NOT_NAMED 1942-12-15 15:00:00 NR 14.8109 128.866 main 469 458 __________P___ -1 14.8109 128.866 7 8 307
1942348N06130 1942 71 WP MM NOT_NAMED 1942-12-15 18:00:00 NR 15.0624 128.571 main 466 454 __________P___ -1 15.0624 128.571 7 7 317
1942348N06130 1942 71 WP MM NOT_NAMED 1942-12-15 21:00:00 NR 15.3326 128.366 main 458 452 __________P___ -1 15.3326 128.366 7 6 334
1942348N06130 1942 71 WP MM NOT_NAMED 1942-12-16 00:00:00 NR 15.6000 128.300 main 460 460 __________O___ -1 15.6000 128.300 7 5 6
1942348N06130 1942 71 WP MM NOT_NAMED 1942-12-16 03:00:00 NR 15.8444 128.426 main 479 479 __________P___ -1 15.8444 128.426 7 6 38
1942348N06130 1942 71 WP MM NOT_NAMED 1942-12-16 06:00:00 NR 16.0802 128.692 main 523 523 __________P___ -1 16.0802 128.692 7 7 52
1942348N06130 1942 71 WP MM NOT_NAMED 1942-12-16 09:00:00 NR 16.3008 129.036 main 562 562 __________P___ -1 16.3008 129.036 7 8 58
1942348N06130 1942 71 WP MM NOT_NAMED 1942-12-16 12:00:00 NR 16.5000 129.400 main 610 610 __________O___ -1 16.5000 129.400 7 8 61
1942348N06130 1942 71 WP MM NOT_NAMED 1942-12-16 15:00:00 NR 16.6740 129.735 main 649 649 __________P___ -1 16.6740 129.735 7 7 62
1942348N06130 1942 71 WP MM NOT_NAMED 1942-12-16 18:00:00 NR 16.8275 130.040 main 682 682 __________P___ -1 16.8275 130.040 7 6 63
1942348N06130 1942 71 WP MM NOT_NAMED 1942-12-16 21:00:00 NR 16.9672 130.325 main 721 721 __________P___ -1 16.9672 130.325 7 6 63
1942348N06130 1942 71 WP MM NOT_NAMED 1942-12-17 00:00:00 NR 17.1000 130.600 main 754 __________O___ -1 17.1000 130.600 7 6 63

Digital Typhoon Data and Search

About IBTrACS Database

This database is a web-friendly format of International Best Track Archive for Climate Stewardship (IBTrACS), a global best track data archive curated by NOAA dating back to 1842.

Updated: 2021-10-08